Hovedside
METAR-TAF:

METAR-TAF

Lufthavner :

Biak, Indonesia

breddegrad: 01-11S, lengdegrad: 136-07E, høyde over havet: 11 m

Gjeldene værobservasjon

Denne rapporten ble laget for 51 minutter siden, klokken 17:30 UTC
Vind 4 kt fra Nordøst, skiftende mellom Sørvest og Nordøst
Temperatur 26°C
Luftfuktighet 94%
Trykk 1009 hPa
Sikt: 8000 m
Spredte skyer i en høyde av 1400 ft
Brutte skyer i en høyde av 10000 ft
lett regn

METAR: WABB 251730Z 05004KT 220V050 8000 -RA SCT014 BKN100 26/25 Q1009 TEMPO RA

Tid: 01:21 (18:21 UTC)

Varsel

Denne rapporten ble laget for 1 time og 21 minutter siden, klokken 17:00 UTC
Varsel gyldig fra 25. klokken 18 UTC til 27. klokken 00 UTC
Vind kt fra Nord
Sikt 10 km eller mer
Spredte skyer i en høyde av 1500 ft
Midlertidig
fra 25. klokken 18 UTC til 25. klokken 21 UTC
Brutte skyer i en høyde av 1300 ft
regn,

TAF: WABB 251700Z 2518/2700 00000KT 9999 SCT015 TEMPO 2518/2521 RA BKN013

Værobservasjoner og værvarsel for over 4000 flyplasser (METAR- og TAF-rapporter).

Tilgjengelige stasjoner er representert av de røde og gule prikkene på kartet.

Hold musepekeren over prikken for å se navnet på stasjonen.

Klikk så for å se værobservasjoner og -varsler.

For å forandre kartet kan du klikke på den grønne knappen med svart kryss for å zoome inn, på den grønne knappen med strek for å zoome ut, eller på de grønne pilene for å se tilstøtende kart.


METAR-TAF: